Time;durP1;ratioP1;P1;durP2;ratioP2;P2;SDS_P1;SDS_P2;PMS_P1;PMS_P2;Temp;Humidity;BMP_temperature;BMP_pressure;BME280_temperature;BME280_humidity;BME280_pressure;Samples;Min_cycle;Max_cycle;Signal;HPM_P1;HPM_P2
2022/08/04 00:00:06;;;;;;;18.83;10.00;;;20.60;99.90;;;;;;5099721;28;20054;-69
2022/08/04 00:02:41;;;;;;;19.95;10.45;;;20.80;99.90;;;;;;5100560;28;20524;-69
2022/08/04 00:05:16;;;;;;;16.17;10.82;;;20.60;99.90;;;;;;5118621;28;20036;-69
2022/08/04 00:07:49;;;;;;;20.08;10.20;;;20.80;99.90;;;;;;5118784;28;20039;-68
2022/08/04 00:10:17;;;;;;;16.65;10.57;;;20.70;99.90;;;;;;5099776;28;20061;-68
2022/08/04 00:12:47;;;;;;;21.67;11.25;;;20.80;99.90;;;;;;5100523;28;20055;-68
2022/08/04 00:15:15;;;;;;;23.98;11.40;;;20.80;99.90;;;;;;5100556;28;20436;-68
2022/08/04 00:17:45;;;;;;;26.08;11.68;;;20.60;99.90;;;;;;5100126;28;20043;-68
2022/08/04 00:20:14;;;;;;;21.27;10.63;;;20.60;99.90;;;;;;5083064;28;20048;-69
2022/08/04 00:22:44;;;;;;;25.67;12.32;;;20.70;99.90;;;;;;5118660;28;20092;-68
2022/08/04 00:25:09;;;;;;;22.98;10.25;;;20.70;99.90;;;;;;5100452;28;20040;-68
2022/08/04 00:27:36;;;;;;;17.00;10.38;;;20.70;99.90;;;;;;5100091;28;20089;-69
2022/08/04 00:30:04;;;;;;;18.52;11.43;;;20.70;99.90;;;;;;5100058;28;20112;-69
2022/08/04 00:32:30;;;;;;;21.25;11.90;;;20.80;99.90;;;;;;5100081;28;20408;-69
2022/08/04 00:34:57;;;;;;;24.05;10.25;;;20.60;99.90;;;;;;5100064;28;20040;-70
2022/08/04 00:37:24;;;;;;;19.30;10.98;;;20.60;99.90;;;;;;5118307;28;20042;-70
2022/08/04 00:39:53;;;;;;;19.08;9.55;;;20.60;99.90;;;;;;5100166;28;20523;-70
2022/08/04 00:42:41;;;;;;;16.35;9.57;;;20.60;99.90;;;;;;5100044;28;20058;-68
2022/08/04 00:45:39;;;;;;;17.17;9.80;;;20.40;99.90;;;;;;5100325;28;20035;-68
2022/08/04 00:48:27;;;;;;;20.25;9.55;;;20.50;99.90;;;;;;5118317;28;20096;-69
2022/08/04 00:51:10;;;;;;;16.98;10.68;;;20.40;99.90;;;;;;5117881;28;20527;-68
2022/08/04 00:53:44;;;;;;;23.80;10.20;;;20.50;99.90;;;;;;5116112;28;20040;-69
2022/08/04 00:56:29;;;;;;;26.10;11.05;;;20.40;99.90;;;;;;5080105;28;20079;-69
2022/08/04 00:59:20;;;;;;;21.90;10.30;;;20.50;99.90;;;;;;5114754;28;20035;-69
2022/08/04 01:01:59;;;;;;;19.38;9.65;;;20.40;99.90;;;;;;5115118;28;20044;-69
2022/08/04 01:04:45;;;;;;;21.23;11.70;;;20.50;99.90;;;;;;5096782;28;20038;-68
2022/08/04 01:07:23;;;;;;;26.73;10.27;;;20.50;99.90;;;;;;5079669;28;20164;-68
2022/08/04 01:10:06;;;;;;;15.25;9.98;;;20.20;99.90;;;;;;5114442;28;20043;-68
2022/08/04 01:12:35;;;;;;;19.30;9.82;;;20.20;99.90;;;;;;5114936;28;20062;-69
2022/08/04 01:15:16;;;;;;;20.73;11.05;;;20.40;99.90;;;;;;5096747;28;20035;-69
2022/08/04 01:18:04;;;;;;;16.58;9.82;;;20.20;99.90;;;;;;5114520;28;20071;-69
2022/08/04 01:20:46;;;;;;;23.83;10.73;;;20.20;99.90;;;;;;5114500;28;20092;-68
2022/08/04 01:23:57;;;;;;;20.23;10.98;;;20.20;99.90;;;;;;5096295;28;20047;-69
2022/08/04 01:26:44;;;;;;;21.02;10.65;;;20.40;99.90;;;;;;5058113;28;20075;-69
2022/08/04 01:29:11;;;;;;;21.75;10.50;;;20.20;99.90;;;;;;5096364;28;20055;-68
2022/08/04 01:32:17;;;;;;;17.95;9.77;;;20.20;99.90;;;;;;5096297;28;20039;-69
2022/08/04 01:35:06;;;;;;;17.92;11.00;;;20.20;99.90;;;;;;4995123;28;20077;-69
2022/08/04 01:37:56;;;;;;;18.42;10.25;;;20.10;99.90;;;;;;5094652;28;20064;-68
2022/08/04 01:40:22;;;;;;;16.80;10.35;;;20.10;99.90;;;;;;5114060;28;20040;-68
2022/08/04 01:42:51;;;;;;;21.67;10.70;;;20.10;99.90;;;;;;5114096;28;20031;-69
2022/08/04 01:45:17;;;;;;;18.42;10.15;;;20.20;99.90;;;;;;5095853;28;20500;-69
2022/08/04 01:47:49;;;;;;;18.02;10.32;;;20.10;99.90;;;;;;5114146;28;20047;-69
2022/08/04 01:50:15;;;;;;;19.00;11.68;;;20.20;99.90;;;;;;5078603;28;20160;-68
2022/08/04 01:52:43;;;;;;;21.17;10.70;;;20.30;99.90;;;;;;5114029;28;20075;-68
2022/08/04 01:55:11;;;;;;;17.40;10.38;;;20.00;99.90;;;;;;5113922;28;20036;-68
2022/08/04 01:57:49;;;;;;;19.42;10.45;;;20.20;99.90;;;;;;5113566;28;20502;-68
2022/08/04 02:00:22;;;;;;;25.42;11.35;;;20.30;99.90;;;;;;5113745;28;20044;-68
2022/08/04 02:02:49;;;;;;;22.08;10.73;;;20.00;99.90;;;;;;5095519;28;20124;-68
2022/08/04 02:05:17;;;;;;;16.75;10.95;;;20.10;99.90;;;;;;5113576;28;20028;-68
2022/08/04 02:08:12;;;;;;;22.15;10.98;;;19.80;99.90;;;;;;5113600;28;20054;-69
2022/08/04 02:10:41;;;;;;;19.63;9.85;;;19.80;99.90;;;;;;5095267;28;20040;-69
2022/08/04 02:13:25;;;;;;;17.13;10.23;;;19.90;99.90;;;;;;5113679;28;20039;-69
2022/08/04 02:15:57;;;;;;;21.75;11.68;;;20.10;99.90;;;;;;5113766;28;20424;-68
2022/08/04 02:18:29;;;;;;;17.75;9.55;;;20.10;99.90;;;;;;5094997;28;20040;-68
2022/08/04 02:21:00;;;;;;;17.60;9.73;;;19.80;99.90;;;;;;5113336;28;20061;-68
2022/08/04 02:23:35;;;;;;;20.27;11.10;;;20.00;99.90;;;;;;5113503;28;20265;-68
2022/08/04 02:26:04;;;;;;;24.13;11.23;;;20.10;99.90;;;;;;5095276;28;20080;-68
2022/08/04 02:28:45;;;;;;;21.83;12.05;;;19.90;99.90;;;;;;5078068;28;20079;-68
2022/08/04 02:31:31;;;;;;;20.30;10.60;;;20.10;99.90;;;;;;5112979;28;20127;-69
2022/08/04 02:34:28;;;;;;;15.32;9.48;;;20.10;99.90;;;;;;5113310;28;20036;-68
2022/08/04 02:36:55;;;;;;;18.13;10.23;;;19.90;99.90;;;;;;5113083;28;20401;-68
2022/08/04 02:39:22;;;;;;;16.02;10.50;;;20.00;99.90;;;;;;5094439;28;20047;-68
2022/08/04 02:41:48;;;;;;;22.80;10.32;;;20.10;99.90;;;;;;5113181;28;20084;-68
2022/08/04 02:44:21;;;;;;;17.42;10.60;;;19.90;99.90;;;;;;5113004;28;20389;-69
2022/08/04 02:46:49;;;;;;;20.33;11.18;;;20.00;99.90;;;;;;5113024;28;20161;-68
2022/08/04 02:49:17;;;;;;;17.45;10.98;;;20.00;99.90;;;;;;5112609;28;20462;-68
2022/08/04 02:51:46;;;;;;;22.92;12.10;;;19.90;99.90;;;;;;5077569;28;20058;-69
2022/08/04 02:54:16;;;;;;;18.88;11.13;;;19.80;99.90;;;;;;5094851;28;20039;-69
2022/08/04 02:56:44;;;;;;;18.42;11.15;;;19.90;99.90;;;;;;5112825;28;20038;-69
2022/08/04 02:59:13;;;;;;;15.63;9.88;;;20.00;99.90;;;;;;5112565;28;20039;-67
2022/08/04 03:01:40;;;;;;;13.80;10.10;;;19.60;99.90;;;;;;5112729;28;20059;-69
2022/08/04 03:04:14;;;;;;;17.98;10.30;;;19.70;99.90;;;;;;5094258;28;20043;-69
2022/08/04 03:07:26;;;;;;;18.30;10.68;;;20.00;99.90;;;;;;5112949;28;20382;-69
2022/08/04 03:10:29;;;;;;;18.48;11.93;;;19.70;99.90;;;;;;5112361;28;20054;-69
2022/08/04 03:13:29;;;;;;;18.98;10.57;;;19.80;99.90;;;;;;5112656;28;20043;-69
2022/08/04 03:16:22;;;;;;;20.23;10.98;;;20.00;99.90;;;;;;5112419;28;20051;-70
2022/08/04 03:19:26;;;;;;;20.50;11.68;;;19.70;99.90;;;;;;5093925;28;20047;-69
2022/08/04 03:22:15;;;;;;;21.50;11.63;;;19.70;99.90;;;;;;5112535;28;20096;-69
2022/08/04 03:24:59;;;;;;;22.52;11.38;;;19.80;99.90;;;;;;5112439;28;20390;-69
2022/08/04 03:27:46;;;;;;;21.70;11.32;;;19.70;99.90;;;;;;5093970;28;20050;-69
2022/08/04 03:30:25;;;;;;;17.77;11.85;;;19.90;99.90;;;;;;5111886;28;20502;-69
2022/08/04 03:33:27;;;;;;;25.92;11.18;;;19.90;99.90;;;;;;5112254;28;20072;-69
2022/08/04 03:36:26;;;;;;;21.42;12.35;;;19.70;99.90;;;;;;5093976;28;20039;-69
2022/08/04 03:39:30;;;;;;;16.23;10.68;;;19.80;99.90;;;;;;5112009;28;20043;-69
2022/08/04 03:42:29;;;;;;;20.67;10.13;;;19.80;99.90;;;;;;5112123;28;20660;-69
2022/08/04 03:45:23;;;;;;;18.67;11.02;;;19.70;99.90;;;;;;5094054;28;20035;-69
2022/08/04 03:48:19;;;;;;;15.93;10.35;;;19.80;99.90;;;;;;5093756;28;20079;-69
2022/08/04 03:53:47;;;;;;;19.15;10.95;;;19.80;99.90;;;;;;5093778;28;20425;-69
2022/08/04 03:56:27;;;;;;;19.42;10.57;;;19.60;99.90;;;;;;5111950;28;20047;-69
2022/08/04 03:59:04;;;;;;;18.80;10.75;;;19.70;99.90;;;;;;5111595;28;20052;-69
2022/08/04 04:01:51;;;;;;;22.75;11.95;;;19.70;99.90;;;;;;5093278;28;20047;-69
2022/08/04 04:04:31;;;;;;;19.42;10.77;;;19.60;99.90;;;;;;5111939;28;20070;-68
2022/08/04 04:07:17;;;;;;;22.77;11.23;;;19.90;99.90;;;;;;5112090;28;20038;-68
2022/08/04 04:10:23;;;;;;;17.52;11.02;;;20.00;99.90;;;;;;5111723;28;20082;-69
2022/08/04 04:13:22;;;;;;;14.48;9.77;;;19.70;99.90;;;;;;5111748;28;20519;-68
2022/08/04 04:16:04;;;;;;;16.20;11.07;;;19.60;99.90;;;;;;5111965;28;20416;-69
2022/08/04 04:18:51;;;;;;;17.13;10.73;;;20.00;99.90;;;;;;5093427;28;20489;-69
2022/08/04 04:21:53;;;;;;;19.80;10.10;;;19.70;99.90;;;;;;5111455;28;20036;-69
2022/08/04 04:24:19;;;;;;;16.92;11.35;;;19.80;99.90;;;;;;5111814;28;20032;-69
2022/08/04 04:26:52;;;;;;;17.92;10.55;;;19.70;99.90;;;;;;5111607;28;20477;-69
2022/08/04 04:29:36;;;;;;;20.88;11.88;;;19.70;99.90;;;;;;5094693;28;20085;-69
2022/08/04 04:32:46;;;;;;;17.15;11.25;;;20.10;99.90;;;;;;5097480;28;20051;-69
2022/08/04 04:35:20;;;;;;;17.42;11.02;;;20.10;99.90;;;;;;5115540;28;20132;-69
2022/08/04 04:38:29;;;;;;;17.13;11.25;;;20.10;99.90;;;;;;5096966;28;20054;-69
2022/08/04 04:41:04;;;;;;;18.80;11.40;;;20.10;99.90;;;;;;5115242;28;20035;-70
2022/08/04 04:44:14;;;;;;;27.08;11.95;;;20.00;99.90;;;;;;5115311;28;20040;-69
2022/08/04 04:46:49;;;;;;;22.77;12.75;;;20.00;99.90;;;;;;5089261;28;20055;-69
2022/08/04 04:49:39;;;;;;;24.60;12.25;;;20.00;99.90;;;;;;5115052;28;20082;-69
2022/08/04 04:52:26;;;;;;;16.88;10.18;;;20.40;99.90;;;;;;5115266;28;20039;-69
2022/08/04 04:55:14;;;;;;;16.27;9.88;;;20.50;99.90;;;;;;5115056;28;20050;-70
2022/08/04 04:57:40;;;;;;;17.02;10.68;;;20.50;99.90;;;;;;5115011;28;20081;-68
2022/08/04 05:00:12;;;;;;;22.95;10.30;;;20.40;99.90;;;;;;5114914;28;20088;-68
2022/08/04 05:02:59;;;;;;;16.17;9.07;;;20.40;99.90;;;;;;5115074;28;20035;-68
2022/08/04 05:05:53;;;;;;;16.15;10.25;;;20.60;99.90;;;;;;5089375;28;20062;-69
2022/08/04 05:09:01;;;;;;;13.10;8.25;;;20.40;99.90;;;;;;5099797;28;20039;-68
2022/08/04 05:11:45;;;;;;;11.85;8.55;;;20.90;99.90;;;;;;5087529;28;20050;-69
2022/08/04 05:14:19;;;;;;;11.48;7.63;;;21.00;99.90;;;;;;5096401;28;20043;-68
2022/08/04 05:17:12;;;;;;;18.90;8.77;;;21.00;99.90;;;;;;5096351;28;20497;-68
2022/08/04 05:19:50;;;;;;;22.00;10.55;;;21.00;99.90;;;;;;5095856;28;20096;-69
2022/08/04 05:22:44;;;;;;;16.10;10.73;;;21.00;99.90;;;;;;5114861;28;20063;-69
2022/08/04 05:25:19;;;;;;;23.45;11.57;;;21.10;99.90;;;;;;5095586;28;20210;-68
2022/08/04 05:27:54;;;;;;;25.80;11.43;;;21.40;99.90;;;;;;5096412;28;20032;-69
2022/08/04 05:30:23;;;;;;;19.92;11.05;;;21.30;99.90;;;;;;5114461;28;20036;-68
2022/08/04 05:33:10;;;;;;;17.83;11.13;;;21.60;99.90;;;;;;5096183;28;20070;-69
2022/08/04 05:35:42;;;;;;;20.65;11.13;;;21.80;99.90;;;;;;5114460;28;20040;-69
2022/08/04 05:38:10;;;;;;;;;;;22.20;99.90;;;;;;5079216;28;20079;-68
2022/08/04 05:40:38;;;;;;;17.00;10.85;;;22.20;99.90;;;;;;5113392;28;20043;-69
2022/08/04 05:43:05;;;;;;;16.63;10.40;;;22.70;99.90;;;;;;5095865;28;20046;-70
2022/08/04 05:45:33;;;;;;;18.10;10.70;;;22.70;99.90;;;;;;5096050;28;20089;-69
2022/08/04 05:48:01;;;;;;;17.75;10.38;;;23.10;99.90;;;;;;5095748;28;20489;-69
2022/08/04 05:50:28;;;;;;;15.77;10.15;;;23.10;99.90;;;;;;5095322;28;20497;-68
2022/08/04 05:52:55;;;;;;;17.20;10.05;;;23.40;99.90;;;;;;5095999;28;20511;-69
2022/08/04 05:55:21;;;;;;;15.52;9.60;;;23.40;99.90;;;;;;5114034;28;20154;-69
2022/08/04 05:57:48;;;;;;;19.17;10.25;;;23.50;99.90;;;;;;5113623;22;20565;-72
2022/08/04 06:00:16;;;;;;;13.55;9.45;;;23.60;99.90;;;;;;5092799;28;20039;-70
2022/08/04 06:02:46;;;;;;;17.00;8.63;;;23.90;99.90;;;;;;5093465;28;20440;-71
2022/08/04 06:05:14;;;;;;;18.92;9.63;;;23.80;99.90;;;;;;5092189;28;20040;-71
2022/08/04 06:07:41;;;;;;;16.48;8.10;;;24.00;99.90;;;;;;5093171;28;20047;-70
2022/08/04 06:10:07;;;;;;;21.85;9.38;;;24.20;99.90;;;;;;5091229;28;20044;-70
2022/08/04 06:12:48;;;;;;;16.60;8.75;;;24.20;99.90;;;;;;5091991;28;20044;-70
2022/08/04 06:15:18;;;;;;;19.35;9.02;;;24.20;99.90;;;;;;5093311;28;20401;-70
2022/08/04 06:17:57;;;;;;;12.73;7.68;;;24.40;99.90;;;;;;5091743;28;20047;-70
2022/08/04 06:20:30;;;;;;;14.75;7.78;;;24.40;99.90;;;;;;5093192;28;20055;-70
2022/08/04 06:23:00;;;;;;;17.20;8.02;;;24.50;99.90;;;;;;5092635;28;20036;-70
2022/08/04 06:25:31;;;;;;;12.73;6.13;;;24.60;99.90;;;;;;5093166;28;20409;-71
2022/08/04 06:27:57;;;;;;;20.15;6.28;;;25.00;99.90;;;;;;5092953;28;20048;-70
2022/08/04 06:30:26;;;;;;;11.18;7.05;;;25.30;99.90;;;;;;5092641;28;20044;-73
2022/08/04 06:32:56;;;;;;;15.15;8.07;;;25.40;99.90;;;;;;5092773;28;20036;-74
2022/08/04 06:35:23;;;;;;;14.40;6.75;;;25.80;99.90;;;;;;5091573;28;20039;-73
2022/08/04 06:37:50;;;;;;;12.82;6.60;;;26.00;99.90;;;;;;5092795;28;20032;-73
2022/08/04 06:40:21;;;;;;;11.77;5.65;;;26.20;99.90;;;;;;5093502;28;20054;-73
2022/08/04 06:42:48;;;;;;;13.90;6.05;;;26.40;99.90;;;;;;5091389;28;20036;-71
2022/08/04 06:45:14;;;;;;;13.45;6.35;;;26.50;98.90;;;;;;5092622;28;20441;-72
2022/08/04 06:47:41;;;;;;;12.73;6.00;;;26.50;99.00;;;;;;5092533;28;20043;-72
2022/08/04 06:50:08;;;;;;;10.23;5.65;;;26.70;98.30;;;;;;5091033;28;20039;-71
2022/08/04 06:52:34;;;;;;;13.82;6.25;;;26.50;96.90;;;;;;5090694;28;20398;-71
2022/08/04 06:55:02;;;;;;;11.98;5.85;;;26.50;97.50;;;;;;5091395;28;20036;-71
2022/08/04 06:57:30;;;;;;;10.27;5.20;;;26.60;97.70;;;;;;5091530;28;20032;-71
2022/08/04 07:00:11;;;;;;;14.52;5.78;;;26.50;97.60;;;;;;5090956;28;20132;-72
2022/08/04 07:02:51;;;;;;;10.98;5.22;;;26.30;96.30;;;;;;5092768;28;20044;-71
2022/08/04 07:05:18;;;;;;;10.63;5.72;;;26.20;97.10;;;;;;5058390;28;20123;-71
2022/08/04 07:07:44;;;;;;;11.73;5.00;;;25.90;97.90;;;;;;5074081;28;20047;-71
2022/08/04 07:10:11;;;;;;;9.52;4.70;;;25.90;98.30;;;;;;5091864;28;20072;-71
2022/08/04 07:12:38;;;;;;;15.07;6.90;;;26.00;98.60;;;;;;5090845;28;20051;-72
2022/08/04 07:15:06;;;;;;;11.13;5.22;;;26.00;97.90;;;;;;5092352;28;20040;-73
2022/08/04 07:17:34;;;;;;;10.82;5.40;;;26.40;97.90;;;;;;5091883;28;20036;-71
2022/08/04 07:20:01;;;;;;;13.75;6.20;;;26.50;97.10;;;;;;5088578;28;20036;-71
2022/08/04 07:22:28;;;;;;;12.68;5.55;;;26.70;96.20;;;;;;5091945;28;20035;-72
2022/08/04 07:24:56;;;;;;;13.85;5.80;;;27.00;95.60;;;;;;5090481;28;20528;-71
2022/08/04 07:27:22;;;;;;;12.02;6.07;;;27.20;94.90;;;;;;5090569;28;20039;-71
2022/08/04 07:29:48;;;;;;;16.83;5.50;;;27.50;94.20;;;;;;5090592;28;20043;-71
2022/08/04 07:32:15;;;;;;;10.48;5.35;;;27.70;93.20;;;;;;5091831;28;20089;-72
2022/08/04 07:34:41;;;;;;;11.90;4.55;;;27.60;92.00;;;;;;5091897;28;20489;-72
2022/08/04 07:37:07;;;;;;;10.23;4.30;;;27.90;92.90;;;;;;5091547;28;20032;-71
2022/08/04 07:39:35;;;;;;;8.45;4.07;;;28.00;91.90;;;;;;5089993;28;20405;-72
2022/08/04 07:42:02;;;;;;;7.40;3.67;;;28.10;91.40;;;;;;5091874;28;20083;-72
2022/08/04 07:44:30;;;;;;;7.65;3.88;;;28.30;91.00;;;;;;5091779;28;20040;-72
2022/08/04 07:46:55;;;;;;;9.80;4.25;;;28.40;90.50;;;;;;5091636;28;20036;-71
2022/08/04 07:49:23;;;;;;;11.10;3.30;;;28.60;89.40;;;;;;5090809;28;20115;-72
2022/08/04 07:51:49;;;;;;;9.55;3.22;;;28.90;88.80;;;;;;5090092;28;20044;-71
2022/08/04 07:54:16;;;;;;;10.45;4.10;;;29.20;86.10;;;;;;5091418;28;20035;-72
2022/08/04 07:56:43;;;;;;;11.15;3.40;;;29.40;83.40;;;;;;5091463;28;20036;-71
2022/08/04 07:59:08;;;;;;;6.55;3.38;;;29.70;82.20;;;;;;5091598;28;20036;-72
2022/08/04 08:01:35;;;;;;;9.32;3.95;;;29.70;80.50;;;;;;5091488;28;20044;-73
2022/08/04 08:04:03;;;;;;;15.85;3.58;;;29.90;79.50;;;;;;5093371;28;20169;-72
2022/08/04 08:06:29;;;;;;;7.03;2.97;;;30.00;79.50;;;;;;5095617;28;20451;-72
2022/08/04 08:08:55;;;;;;;9.80;3.30;;;30.10;78.90;;;;;;5095613;28;20119;-72
2022/08/04 08:11:21;;;;;;;8.57;3.65;;;30.20;76.90;;;;;;5095364;28;20032;-71
2022/08/04 08:13:47;;;;;;;4.95;3.22;;;30.20;75.80;;;;;;5095690;28;20162;-71
2022/08/04 08:16:13;;;;;;;8.70;3.50;;;30.40;77.00;;;;;;5095546;28;20032;-72
2022/08/04 08:18:39;;;;;;;8.43;3.30;;;30.40;80.50;;;;;;5095571;28;20089;-72
2022/08/04 08:21:06;;;;;;;10.80;3.13;;;30.40;79.80;;;;;;5077111;28;20123;-71
2022/08/04 08:23:34;;;;;;;6.30;2.67;;;30.60;77.70;;;;;;5077140;28;20490;-73
2022/08/04 08:26:00;;;;;;;11.82;3.33;;;30.60;77.00;;;;;;5095250;28;20509;-71
2022/08/04 08:28:26;;;;;;;6.78;2.65;;;30.60;74.70;;;;;;5095355;28;20040;-72
2022/08/04 08:30:51;;;;;;;7.22;2.63;;;30.60;78.00;;;;;;5095003;28;20066;-72
2022/08/04 08:33:19;;;;;;;7.68;2.42;;;30.40;78.20;;;;;;5095209;28;20032;-71
2022/08/04 08:35:55;;;;;;;13.20;3.42;;;30.30;77.40;;;;;;5095071;28;20040;-72
2022/08/04 08:38:41;;;;;;;7.65;3.10;;;30.10;77.80;;;;;;5095143;28;20086;-72
2022/08/04 08:41:40;;;;;;;8.98;2.40;;;30.10;78.60;;;;;;5094637;28;20528;-72
2022/08/04 08:44:24;;;;;;;7.50;3.45;;;29.90;78.50;;;;;;5095214;28;20047;-71
2022/08/04 08:47:20;;;;;;;5.22;2.67;;;29.50;75.40;;;;;;5095054;28;20040;-72
2022/08/04 08:50:10;;;;;;;6.45;2.55;;;29.30;77.90;;;;;;5094646;28;20119;-71
2022/08/04 08:52:57;;;;;;;7.95;3.20;;;29.40;79.50;;;;;;5095058;28;20043;-71
2022/08/04 08:55:44;;;;;;;8.52;2.50;;;29.60;79.50;;;;;;5094855;28;20054;-72
2022/08/04 08:58:31;;;;;;;4.97;2.53;;;29.90;78.10;;;;;;5094514;28;20044;-71
2022/08/04 09:01:24;;;;;;;8.50;3.00;;;30.20;77.80;;;;;;5093159;28;20047;-72
2022/08/04 09:04:08;;;;;;;9.52;2.88;;;30.40;76.00;;;;;;5093273;28;20078;-71
2022/08/04 09:07:05;;;;;;;5.50;3.03;;;30.10;76.30;;;;;;5094514;28;20044;-71
2022/08/04 09:10:00;;;;;;;7.13;2.60;;;30.10;77.30;;;;;;5062456;28;20383;-71
2022/08/04 09:12:35;;;;;;;9.85;4.10;;;29.80;78.50;;;;;;5093055;28;20047;-71
2022/08/04 09:15:10;;;;;;;7.10;2.63;;;30.00;76.40;;;;;;5093299;28;20078;-72
2022/08/04 09:17:56;;;;;;;5.82;2.60;;;29.80;76.80;;;;;;5094462;28;20043;-71
2022/08/04 09:20:47;;;;;;;6.15;2.47;;;29.70;77.80;;;;;;5092778;28;20096;-71
2022/08/04 09:23:26;;;;;;;12.63;3.53;;;29.70;79.10;;;;;;5094354;28;20429;-71
2022/08/04 09:26:10;;;;;;;9.13;2.55;;;29.80;80.70;;;;;;5094170;28;20332;-72
2022/08/04 09:29:02;;;;;;;5.40;3.03;;;29.60;79.70;;;;;;5092507;28;20054;-71
2022/08/04 09:31:42;;;;;;;12.88;3.58;;;29.60;80.60;;;;;;5060443;28;20097;-71
2022/08/04 09:34:18;;;;;;;10.15;3.33;;;29.70;79.80;;;;;;5093271;28;20039;-71
2022/08/04 09:36:59;;;;;;;6.72;3.10;;;29.60;81.10;;;;;;5093625;28;20039;-71
2022/08/04 09:39:41;;;;;;;9.77;3.65;;;29.60;81.30;;;;;;5092327;28;20047;-71
2022/08/04 09:42:15;;;;;;;7.55;3.72;;;29.60;80.70;;;;;;5093948;28;20040;-71
2022/08/04 09:44:52;;;;;;;6.38;3.75;;;29.70;82.50;;;;;;5092608;28;20079;-71
2022/08/04 09:47:22;;;;;;;5.70;3.50;;;29.60;82.20;;;;;;5093929;28;20107;-71
2022/08/04 09:50:08;;;;;;;6.18;3.53;;;29.40;80.40;;;;;;5092129;28;20097;-71
2022/08/04 09:52:43;;;;;;;8.63;3.65;;;29.60;81.00;;;;;;5092886;28;20546;-72
2022/08/04 09:55:22;;;;;;;11.45;3.60;;;29.60;82.40;;;;;;5093631;28;20032;-71
2022/08/04 09:58:06;;;;;;;9.07;3.22;;;29.60;78.80;;;;;;5092081;28;20601;-71
2022/08/04 10:00:42;;;;;;;8.93;4.00;;;29.60;78.50;;;;;;5091671;28;20036;-71
2022/08/04 10:03:11;;;;;;;6.47;4.25;;;29.50;81.90;;;;;;5093407;28;20046;-72
2022/08/04 10:06:07;;;;;;;14.63;5.03;;;29.30;82.20;;;;;;5092465;28;20044;-71
2022/08/04 10:08:58;;;;;;;10.07;4.88;;;29.10;83.50;;;;;;5093414;28;20036;-72
2022/08/04 10:11:39;;;;;;;10.30;5.00;;;28.90;84.10;;;;;;5093034;28;20067;-71
2022/08/04 10:14:36;;;;;;;13.15;5.43;;;28.80;83.70;;;;;;5093534;28;20043;-71
2022/08/04 10:17:18;;;;;;;8.98;4.47;;;28.60;84.20;;;;;;5068856;28;20040;-72
2022/08/04 10:19:45;;;;;;;10.98;4.85;;;28.50;85.20;;;;;;5092726;28;20036;-71
2022/08/04 10:22:25;;;;;;;9.98;4.30;;;28.60;85.80;;;;;;5093278;28;20036;-72
2022/08/04 10:25:28;;;;;;;8.50;3.88;;;28.70;83.40;;;;;;5093148;28;20043;-72
2022/08/04 10:27:59;;;;;;;7.93;3.80;;;28.90;83.40;;;;;;5092932;28;20040;-71
2022/08/04 10:30:27;;;;;;;8.40;3.65;;;28.90;82.30;;;;;;5092911;28;20425;-72
2022/08/04 10:33:01;;;;;;;14.55;4.22;;;28.80;81.80;;;;;;5091920;28;20040;-72
2022/08/04 10:35:32;;;;;;;13.98;3.50;;;28.70;81.30;;;;;;5092910;28;20138;-72
2022/08/04 10:38:22;;;;;;;8.25;3.50;;;28.70;83.80;;;;;;5092002;28;20413;-71
2022/08/04 10:40:58;;;;;;;8.18;2.90;;;28.50;81.60;;;;;;5091128;28;20052;-71
2022/08/04 10:43:47;;;;;;;4.05;2.60;;;28.40;81.30;;;;;;5091205;28;20047;-71
2022/08/04 10:46:21;;;;;;;6.97;2.53;;;28.30;79.60;;;;;;5088496;28;20024;-71
2022/08/04 10:49:00;;;;;;;5.93;2.30;;;28.30;81.30;;;;;;5090955;28;20642;-71
2022/08/04 10:51:44;;;;;;;10.80;2.88;;;28.30;83.40;;;;;;5092653;28;20055;-71
2022/08/04 10:54:18;;;;;;;6.35;2.10;;;28.30;84.20;;;;;;5092597;28;20035;-71
2022/08/04 10:56:49;;;;;;;6.68;2.03;;;28.30;81.30;;;;;;5091399;28;20124;-72
2022/08/04 10:59:27;;;;;;;5.53;2.03;;;28.20;80.50;;;;;;5091828;28;20054;-71
2022/08/04 11:02:04;;;;;;;6.65;2.50;;;28.00;79.90;;;;;;5091869;28;20435;-71
2022/08/04 11:05:11;;;;;;;5.60;1.90;;;27.90;82.10;;;;;;5090552;28;20040;-71
2022/08/04 11:07:39;;;;;;;4.88;1.92;;;27.80;78.90;;;;;;4970623;28;20042;-71
2022/08/04 11:10:07;;;;;;;13.70;2.50;;;27.80;81.60;;;;;;4954626;28;20071;-70
2022/08/04 11:12:34;;;;;;;5.72;2.17;;;27.90;82.30;;;;;;5022831;28;20499;-71
2022/08/04 11:15:17;;;;;;;9.07;2.00;;;27.80;80.70;;;;;;5084589;28;20039;-71
2022/08/04 11:17:49;;;;;;;9.48;2.20;;;27.80;79.60;;;;;;5090992;28;20050;-71
2022/08/04 11:20:35;;;;;;;4.63;1.80;;;27.80;79.70;;;;;;5091832;28;20044;-71
2022/08/04 11:23:13;;;;;;;6.70;1.90;;;27.90;81.20;;;;;;5092319;28;20627;-70
2022/08/04 11:26:03;;;;;;;7.45;1.85;;;27.80;80.10;;;;;;5092197;28;20032;-71
2022/08/04 11:29:09;;;;;;;9.63;2.45;;;27.80;81.00;;;;;;5091834;28;20071;-71
2022/08/04 11:31:40;;;;;;;9.38;2.20;;;27.90;82.20;;;;;;5057628;28;20131;-70
2022/08/04 11:34:19;;;;;;;8.90;2.92;;;27.70;82.10;;;;;;5092057;28;20382;-71
2022/08/04 11:36:46;;;;;;;7.63;2.20;;;27.70;82.60;;;;;;5091800;28;20071;-70
2022/08/04 11:39:23;;;;;;;7.18;2.47;;;27.70;82.60;;;;;;5091384;28;20046;-71
2022/08/04 11:41:55;;;;;;;6.10;2.38;;;27.60;83.10;;;;;;5092010;28;20044;-71
2022/08/04 11:44:35;;;;;;;11.93;2.67;;;27.60;85.10;;;;;;5091879;28;20036;-73
2022/08/04 11:47:10;;;;;;;7.15;2.95;;;27.50;86.50;;;;;;5091881;28;20040;-71
2022/08/04 11:49:48;;;;;;;6.38;2.50;;;27.40;87.00;;;;;;5091562;28;20515;-71
2022/08/04 11:52:18;;;;;;;9.13;2.78;;;27.40;88.10;;;;;;5091866;28;20104;-71
2022/08/04 11:54:44;;;;;;;11.50;3.33;;;27.40;89.90;;;;;;5091839;28;20051;-72
2022/08/04 11:57:10;;;;;;;9.45;2.33;;;27.30;90.10;;;;;;5091557;28;20047;-72
2022/08/04 11:59:37;;;;;;;8.15;2.58;;;27.30;90.60;;;;;;5080534;22;20048;-66
2022/08/04 12:02:25;;;;;;;8.95;3.00;;;27.30;91.00;;;;;;5071415;28;20169;-67
2022/08/04 12:05:01;;;;;;;7.68;3.03;;;27.20;91.30;;;;;;5071657;28;20047;-67
2022/08/04 12:07:48;;;;;;;7.57;2.42;;;27.20;92.60;;;;;;5071342;28;20036;-67
2022/08/04 12:10:25;;;;;;;5.72;2.20;;;27.20;93.20;;;;;;5069754;28;20063;-67
2022/08/04 12:13:26;;;;;;;2.40;1.60;;;27.30;94.00;;;;;;5071560;28;20043;-67
2022/08/04 12:15:59;;;;;;;5.25;1.98;;;27.20;91.10;;;;;;5071386;28;20123;-66
2022/08/04 12:18:39;;;;;;;5.43;1.77;;;27.10;91.40;;;;;;5070274;28;20476;-69
2022/08/04 12:21:10;;;;;;;7.05;1.90;;;27.10;91.30;;;;;;5052604;28;20059;-69
2022/08/04 12:23:40;;;;;;;4.53;1.92;;;27.00;91.30;;;;;;5071143;28;20064;-69
2022/08/04 12:26:12;;;;;;;2.90;1.40;;;26.90;91.60;;;;;;5070788;28;20402;-69
2022/08/04 12:28:40;;;;;;;2.53;1.27;;;26.90;91.70;;;;;;5071228;28;20090;-69
2022/08/04 12:31:15;;;;;;;2.97;1.23;;;26.70;92.20;;;;;;5070905;28;20075;-69
2022/08/04 12:33:50;;;;;;;5.28;1.40;;;26.70;91.90;;;;;;5071543;28;20045;-69
2022/08/04 12:36:42;;;;;;;4.15;1.45;;;26.50;91.60;;;;;;5071326;28;20402;-69
2022/08/04 12:39:16;;;;;;;2.65;1.50;;;26.50;90.90;;;;;;5070443;28;20036;-68
2022/08/04 12:41:52;;;;;;;5.03;1.50;;;26.40;91.50;;;;;;5068661;28;20419;-68
2022/08/04 12:44:19;;;;;;;3.13;1.38;;;26.30;90.60;;;;;;5068214;28;20036;-68
2022/08/04 12:46:46;;;;;;;3.17;1.40;;;26.30;91.40;;;;;;5070191;28;20106;-68
2022/08/04 12:49:13;;;;;;;3.30;1.77;;;26.20;91.60;;;;;;5070273;28;20375;-69
2022/08/04 12:51:42;;;;;;;4.22;1.70;;;26.00;91.40;;;;;;5074366;28;20090;-69
2022/08/04 12:54:10;;;;;;;2.65;1.33;;;26.00;91.10;;;;;;5056669;28;20056;-69
2022/08/04 12:56:36;;;;;;;6.90;1.83;;;25.90;91.10;;;;;;5074680;28;20041;-69
2022/08/04 12:59:12;;;;;;;4.50;1.58;;;25.80;91.40;;;;;;5074321;28;20036;-69
2022/08/04 13:01:39;;;;;;;3.13;1.50;;;25.70;93.00;;;;;;5074028;28;20053;-69
2022/08/04 13:04:12;;;;;;;4.32;1.60;;;25.60;94.20;;;;;;5074249;28;20036;-69
2022/08/04 13:06:40;;;;;;;3.28;1.40;;;25.40;94.20;;;;;;5074291;28;20151;-69
2022/08/04 13:09:27;;;;;;;4.07;1.58;;;25.40;94.30;;;;;;5074224;28;20571;-69
2022/08/04 13:11:56;;;;;;;4.57;1.45;;;25.30;94.90;;;;;;5056406;28;20041;-69
2022/08/04 13:14:27;;;;;;;3.03;1.50;;;25.30;94.60;;;;;;5074293;28;20108;-69
2022/08/04 13:16:59;;;;;;;2.45;1.50;;;25.30;94.70;;;;;;5074072;28;20048;-69
2022/08/04 13:19:25;;;;;;;3.80;1.15;;;25.40;94.90;;;;;;5073877;28;20102;-69
2022/08/04 13:21:53;;;;;;;5.00;1.20;;;25.40;93.70;;;;;;5074228;28;20141;-70
2022/08/04 13:24:21;;;;;;;2.38;1.25;;;25.50;93.00;;;;;;5074222;28;20052;-69
2022/08/04 13:26:56;;;;;;;3.08;1.30;;;25.60;92.70;;;;;;5056336;28;20044;-68
2022/08/04 13:29:40;;;;;;;2.60;1.52;;;25.70;92.90;;;;;;5073209;28;20125;-70